sensor_id;sensor_type;location;lat;lon;timestamp;P1;durP1;ratioP1;P2;durP2;ratioP2
47529;SDS011;33272;51.922;7.730;2022-09-09T00:01:14;2.50;;;1.60;;
47529;SDS011;33272;51.922;7.730;2022-09-09T00:03:57;4.90;;;2.13;;
47529;SDS011;33272;51.922;7.730;2022-09-09T00:06:31;2.73;;;1.67;;
47529;SDS011;33272;51.922;7.730;2022-09-09T00:09:03;4.07;;;1.93;;
47529;SDS011;33272;51.922;7.730;2022-09-09T00:11:40;3.07;;;1.40;;
47529;SDS011;33272;51.922;7.730;2022-09-09T00:14:14;5.30;;;1.77;;
47529;SDS011;33272;51.922;7.730;2022-09-09T00:16:50;4.37;;;1.70;;
47529;SDS011;33272;51.922;7.730;2022-09-09T00:19:22;3.77;;;1.83;;
47529;SDS011;33272;51.922;7.730;2022-09-09T00:22:01;2.30;;;1.80;;
47529;SDS011;33272;51.922;7.730;2022-09-09T00:24:41;4.53;;;1.80;;
47529;SDS011;33272;51.922;7.730;2022-09-09T00:27:13;3.17;;;1.93;;
47529;SDS011;33272;51.922;7.730;2022-09-09T00:29:56;4.77;;;2.13;;
47529;SDS011;33272;51.922;7.730;2022-09-09T00:32:28;2.70;;;1.87;;
47529;SDS011;33272;51.922;7.730;2022-09-09T00:34:59;5.07;;;2.00;;
47529;SDS011;33272;51.922;7.730;2022-09-09T00:37:38;6.27;;;2.97;;
47529;SDS011;33272;51.922;7.730;2022-09-09T00:40:07;4.63;;;2.03;;
47529;SDS011;33272;51.922;7.730;2022-09-09T00:42:48;6.10;;;2.03;;
47529;SDS011;33272;51.922;7.730;2022-09-09T00:45:34;3.70;;;1.80;;
47529;SDS011;33272;51.922;7.730;2022-09-09T00:48:19;2.63;;;1.70;;
47529;SDS011;33272;51.922;7.730;2022-09-09T00:50:53;3.47;;;1.60;;
47529;SDS011;33272;51.922;7.730;2022-09-09T00:53:29;2.70;;;1.30;;
47529;SDS011;33272;51.922;7.730;2022-09-09T00:56:08;2.87;;;1.53;;
47529;SDS011;33272;51.922;7.730;2022-09-09T00:58:40;1.50;;;1.30;;
47529;SDS011;33272;51.922;7.730;2022-09-09T01:01:10;3.63;;;1.40;;
47529;SDS011;33272;51.922;7.730;2022-09-09T01:03:41;5.00;;;1.73;;
47529;SDS011;33272;51.922;7.730;2022-09-09T01:06:15;2.33;;;1.37;;
47529;SDS011;33272;51.922;7.730;2022-09-09T01:09:02;2.10;;;1.63;;
47529;SDS011;33272;51.922;7.730;2022-09-09T01:11:42;5.63;;;2.20;;
47529;SDS011;33272;51.922;7.730;2022-09-09T01:14:22;9.33;;;3.43;;
47529;SDS011;33272;51.922;7.730;2022-09-09T01:17:08;3.37;;;2.10;;
47529;SDS011;33272;51.922;7.730;2022-09-09T01:19:45;2.47;;;1.50;;
47529;SDS011;33272;51.922;7.730;2022-09-09T01:22:26;3.13;;;1.73;;
47529;SDS011;33272;51.922;7.730;2022-09-09T01:25:11;4.77;;;1.77;;
47529;SDS011;33272;51.922;7.730;2022-09-09T01:27:56;3.77;;;1.77;;
47529;SDS011;33272;51.922;7.730;2022-09-09T01:30:27;3.43;;;1.60;;
47529;SDS011;33272;51.922;7.730;2022-09-09T01:32:56;1.87;;;1.57;;
47529;SDS011;33272;51.922;7.730;2022-09-09T01:35:33;2.57;;;1.30;;
47529;SDS011;33272;51.922;7.730;2022-09-09T01:38:09;2.80;;;1.60;;
47529;SDS011;33272;51.922;7.730;2022-09-09T01:40:36;3.80;;;1.80;;
47529;SDS011;33272;51.922;7.730;2022-09-09T01:43:05;2.13;;;1.67;;
47529;SDS011;33272;51.922;7.730;2022-09-09T01:45:32;2.33;;;1.60;;
47529;SDS011;33272;51.922;7.730;2022-09-09T01:48:00;2.50;;;1.60;;
47529;SDS011;33272;51.922;7.730;2022-09-09T01:50:29;2.63;;;1.73;;
47529;SDS011;33272;51.922;7.730;2022-09-09T01:52:57;2.50;;;1.60;;
47529;SDS011;33272;51.922;7.730;2022-09-09T01:55:28;2.40;;;1.70;;
47529;SDS011;33272;51.922;7.730;2022-09-09T01:58:02;2.77;;;1.60;;
47529;SDS011;33272;51.922;7.730;2022-09-09T02:00:45;2.10;;;1.47;;
47529;SDS011;33272;51.922;7.730;2022-09-09T02:03:21;3.40;;;1.80;;
47529;SDS011;33272;51.922;7.730;2022-09-09T02:05:55;1.90;;;1.50;;
47529;SDS011;33272;51.922;7.730;2022-09-09T02:08:33;1.70;;;1.60;;
47529;SDS011;33272;51.922;7.730;2022-09-09T02:11:09;2.03;;;1.70;;
47529;SDS011;33272;51.922;7.730;2022-09-09T02:13:41;2.97;;;1.63;;
47529;SDS011;33272;51.922;7.730;2022-09-09T02:16:12;3.13;;;1.53;;
47529;SDS011;33272;51.922;7.730;2022-09-09T02:18:48;1.73;;;1.47;;
47529;SDS011;33272;51.922;7.730;2022-09-09T02:21:21;2.37;;;1.67;;
47529;SDS011;33272;51.922;7.730;2022-09-09T02:23:50;3.50;;;2.07;;
47529;SDS011;33272;51.922;7.730;2022-09-09T02:26:19;2.50;;;1.70;;
47529;SDS011;33272;51.922;7.730;2022-09-09T02:28:50;2.23;;;1.90;;
47529;SDS011;33272;51.922;7.730;2022-09-09T02:31:20;2.67;;;1.93;;
47529;SDS011;33272;51.922;7.730;2022-09-09T02:33:51;2.30;;;1.80;;
47529;SDS011;33272;51.922;7.730;2022-09-09T02:36:23;2.67;;;2.13;;
47529;SDS011;33272;51.922;7.730;2022-09-09T02:38:55;3.40;;;1.80;;
47529;SDS011;33272;51.922;7.730;2022-09-09T02:41:24;2.40;;;2.17;;
47529;SDS011;33272;51.922;7.730;2022-09-09T02:43:58;3.17;;;2.53;;
47529;SDS011;33272;51.922;7.730;2022-09-09T02:46:32;3.07;;;2.13;;
47529;SDS011;33272;51.922;7.730;2022-09-09T02:49:15;6.27;;;3.53;;
47529;SDS011;33272;51.922;7.730;2022-09-09T02:51:50;5.10;;;3.13;;
47529;SDS011;33272;51.922;7.730;2022-09-09T02:54:27;2.53;;;2.27;;
47529;SDS011;33272;51.922;7.730;2022-09-09T02:56:58;4.43;;;2.33;;
47529;SDS011;33272;51.922;7.730;2022-09-09T02:59:33;4.00;;;2.10;;
47529;SDS011;33272;51.922;7.730;2022-09-09T03:02:00;2.50;;;2.20;;
47529;SDS011;33272;51.922;7.730;2022-09-09T03:04:27;4.70;;;2.20;;
47529;SDS011;33272;51.922;7.730;2022-09-09T03:06:55;2.70;;;2.37;;
47529;SDS011;33272;51.922;7.730;2022-09-09T03:09:22;3.30;;;2.20;;
47529;SDS011;33272;51.922;7.730;2022-09-09T03:11:51;2.27;;;2.07;;
47529;SDS011;33272;51.922;7.730;2022-09-09T03:14:20;2.80;;;2.10;;
47529;SDS011;33272;51.922;7.730;2022-09-09T03:16:51;4.10;;;2.60;;
47529;SDS011;33272;51.922;7.730;2022-09-09T03:19:18;3.70;;;2.40;;
47529;SDS011;33272;51.922;7.730;2022-09-09T03:21:45;2.43;;;2.23;;
47529;SDS011;33272;51.922;7.730;2022-09-09T03:24:14;2.30;;;2.10;;
47529;SDS011;33272;51.922;7.730;2022-09-09T03:26:41;2.10;;;1.90;;
47529;SDS011;33272;51.922;7.730;2022-09-09T03:29:10;3.20;;;2.20;;
47529;SDS011;33272;51.922;7.730;2022-09-09T03:31:38;4.47;;;2.40;;
47529;SDS011;33272;51.922;7.730;2022-09-09T03:34:07;4.33;;;2.43;;
47529;SDS011;33272;51.922;7.730;2022-09-09T03:36:34;3.17;;;2.40;;
47529;SDS011;33272;51.922;7.730;2022-09-09T03:39:01;2.97;;;2.30;;
47529;SDS011;33272;51.922;7.730;2022-09-09T03:41:29;4.63;;;2.40;;
47529;SDS011;33272;51.922;7.730;2022-09-09T03:43:56;2.30;;;2.10;;
47529;SDS011;33272;51.922;7.730;2022-09-09T03:46:24;3.07;;;2.20;;
47529;SDS011;33272;51.922;7.730;2022-09-09T03:48:51;4.27;;;2.30;;
47529;SDS011;33272;51.922;7.730;2022-09-09T03:51:20;6.43;;;2.40;;
47529;SDS011;33272;51.922;7.730;2022-09-09T03:53:47;3.80;;;2.30;;
47529;SDS011;33272;51.922;7.730;2022-09-09T03:56:14;3.00;;;2.40;;
47529;SDS011;33272;51.922;7.730;2022-09-09T03:58:41;4.03;;;2.57;;
47529;SDS011;33272;51.922;7.730;2022-09-09T04:01:09;4.53;;;2.40;;
47529;SDS011;33272;51.922;7.730;2022-09-09T04:03:39;4.23;;;2.40;;
47529;SDS011;33272;51.922;7.730;2022-09-09T04:06:08;3.30;;;2.37;;
47529;SDS011;33272;51.922;7.730;2022-09-09T04:08:39;3.30;;;2.70;;
47529;SDS011;33272;51.922;7.730;2022-09-09T04:11:06;6.03;;;2.67;;
47529;SDS011;33272;51.922;7.730;2022-09-09T04:13:35;3.87;;;2.60;;
47529;SDS011;33272;51.922;7.730;2022-09-09T04:16:04;4.60;;;2.77;;
47529;SDS011;33272;51.922;7.730;2022-09-09T04:18:31;3.43;;;2.20;;
47529;SDS011;33272;51.922;7.730;2022-09-09T04:20:59;2.50;;;2.20;;
47529;SDS011;33272;51.922;7.730;2022-09-09T04:23:27;3.60;;;2.60;;
47529;SDS011;33272;51.922;7.730;2022-09-09T04:25:56;3.90;;;2.50;;
47529;SDS011;33272;51.922;7.730;2022-09-09T04:28:25;2.80;;;2.23;;
47529;SDS011;33272;51.922;7.730;2022-09-09T04:30:55;4.67;;;2.50;;
47529;SDS011;33272;51.922;7.730;2022-09-09T04:33:23;3.80;;;2.80;;
47529;SDS011;33272;51.922;7.730;2022-09-09T04:35:52;3.73;;;2.70;;
47529;SDS011;33272;51.922;7.730;2022-09-09T04:38:20;5.90;;;2.63;;
47529;SDS011;33272;51.922;7.730;2022-09-09T04:40:49;4.10;;;2.50;;
47529;SDS011;33272;51.922;7.730;2022-09-09T04:43:20;2.50;;;2.20;;
47529;SDS011;33272;51.922;7.730;2022-09-09T04:45:51;4.33;;;2.40;;
47529;SDS011;33272;51.922;7.730;2022-09-09T04:48:19;4.57;;;2.50;;
47529;SDS011;33272;51.922;7.730;2022-09-09T04:50:53;3.03;;;2.20;;
47529;SDS011;33272;51.922;7.730;2022-09-09T04:53:22;4.47;;;2.40;;
47529;SDS011;33272;51.922;7.730;2022-09-09T04:55:50;3.37;;;2.10;;
47529;SDS011;33272;51.922;7.730;2022-09-09T04:58:17;4.53;;;2.20;;
47529;SDS011;33272;51.922;7.730;2022-09-09T05:00:47;3.97;;;2.00;;
47529;SDS011;33272;51.922;7.730;2022-09-09T05:03:15;3.37;;;2.47;;
47529;SDS011;33272;51.922;7.730;2022-09-09T05:05:42;3.87;;;2.40;;
47529;SDS011;33272;51.922;7.730;2022-09-09T05:08:09;6.73;;;2.63;;
47529;SDS011;33272;51.922;7.730;2022-09-09T05:10:37;5.63;;;2.47;;
47529;SDS011;33272;51.922;7.730;2022-09-09T05:13:06;2.70;;;2.20;;
47529;SDS011;33272;51.922;7.730;2022-09-09T05:15:35;5.40;;;2.40;;
47529;SDS011;33272;51.922;7.730;2022-09-09T05:18:02;3.07;;;2.13;;
47529;SDS011;33272;51.922;7.730;2022-09-09T05:20:29;2.80;;;2.00;;
47529;SDS011;33272;51.922;7.730;2022-09-09T05:22:57;3.30;;;2.00;;
47529;SDS011;33272;51.922;7.730;2022-09-09T05:25:24;3.20;;;1.90;;
47529;SDS011;33272;51.922;7.730;2022-09-09T05:27:51;3.73;;;1.90;;
47529;SDS011;33272;51.922;7.730;2022-09-09T05:30:19;4.73;;;2.23;;
47529;SDS011;33272;51.922;7.730;2022-09-09T05:32:48;2.67;;;1.60;;
47529;SDS011;33272;51.922;7.730;2022-09-09T05:35:15;2.83;;;1.80;;
47529;SDS011;33272;51.922;7.730;2022-09-09T05:37:44;3.03;;;1.70;;
47529;SDS011;33272;51.922;7.730;2022-09-09T05:40:11;2.77;;;1.83;;
47529;SDS011;33272;51.922;7.730;2022-09-09T05:42:38;3.73;;;1.97;;
47529;SDS011;33272;51.922;7.730;2022-09-09T05:45:06;2.40;;;1.73;;
47529;SDS011;33272;51.922;7.730;2022-09-09T05:47:34;3.53;;;2.00;;
47529;SDS011;33272;51.922;7.730;2022-09-09T05:50:03;3.80;;;2.17;;
47529;SDS011;33272;51.922;7.730;2022-09-09T05:52:31;2.87;;;1.60;;
47529;SDS011;33272;51.922;7.730;2022-09-09T05:54:58;4.47;;;2.20;;
47529;SDS011;33272;51.922;7.730;2022-09-09T05:57:25;4.03;;;1.97;;
47529;SDS011;33272;51.922;7.730;2022-09-09T05:59:52;4.03;;;2.03;;
47529;SDS011;33272;51.922;7.730;2022-09-09T06:02:19;3.80;;;1.83;;
47529;SDS011;33272;51.922;7.730;2022-09-09T06:04:46;5.90;;;2.30;;
47529;SDS011;33272;51.922;7.730;2022-09-09T06:07:15;6.87;;;2.10;;
47529;SDS011;33272;51.922;7.730;2022-09-09T06:09:42;2.90;;;1.80;;
47529;SDS011;33272;51.922;7.730;2022-09-09T06:12:09;4.00;;;2.10;;
47529;SDS011;33272;51.922;7.730;2022-09-09T06:14:36;3.03;;;1.63;;
47529;SDS011;33272;51.922;7.730;2022-09-09T06:17:03;2.77;;;2.00;;
47529;SDS011;33272;51.922;7.730;2022-09-09T06:19:31;3.60;;;2.10;;
47529;SDS011;33272;51.922;7.730;2022-09-09T06:21:58;3.47;;;1.90;;
47529;SDS011;33272;51.922;7.730;2022-09-09T06:24:27;5.50;;;2.03;;
47529;SDS011;33272;51.922;7.730;2022-09-09T06:26:55;2.57;;;2.00;;
47529;SDS011;33272;51.922;7.730;2022-09-09T06:29:23;4.03;;;1.80;;
47529;SDS011;33272;51.922;7.730;2022-09-09T06:31:50;3.83;;;2.23;;
47529;SDS011;33272;51.922;7.730;2022-09-09T06:34:17;2.83;;;1.80;;
47529;SDS011;33272;51.922;7.730;2022-09-09T06:36:44;5.37;;;2.23;;
47529;SDS011;33272;51.922;7.730;2022-09-09T06:39:11;5.93;;;2.30;;
47529;SDS011;33272;51.922;7.730;2022-09-09T06:41:41;5.77;;;2.03;;
47529;SDS011;33272;51.922;7.730;2022-09-09T06:44:09;4.73;;;1.90;;
47529;SDS011;33272;51.922;7.730;2022-09-09T06:46:36;4.53;;;1.77;;
47529;SDS011;33272;51.922;7.730;2022-09-09T06:49:04;6.13;;;1.87;;
47529;SDS011;33272;51.922;7.730;2022-09-09T06:51:33;3.23;;;1.70;;
47529;SDS011;33272;51.922;7.730;2022-09-09T06:54:02;3.83;;;2.00;;
47529;SDS011;33272;51.922;7.730;2022-09-09T06:56:32;4.30;;;2.00;;
47529;SDS011;33272;51.922;7.730;2022-09-09T06:59:02;3.17;;;1.63;;
47529;SDS011;33272;51.922;7.730;2022-09-09T07:01:34;3.17;;;1.50;;
47529;SDS011;33272;51.922;7.730;2022-09-09T07:04:04;4.20;;;1.90;;
47529;SDS011;33272;51.922;7.730;2022-09-09T07:06:33;6.97;;;2.10;;
47529;SDS011;33272;51.922;7.730;2022-09-09T07:09:03;5.47;;;1.80;;
47529;SDS011;33272;51.922;7.730;2022-09-09T07:11:33;3.47;;;1.77;;
47529;SDS011;33272;51.922;7.730;2022-09-09T07:14:06;5.03;;;2.20;;
47529;SDS011;33272;51.922;7.730;2022-09-09T07:16:33;2.67;;;1.90;;
47529;SDS011;33272;51.922;7.730;2022-09-09T07:19:02;3.90;;;1.93;;
47529;SDS011;33272;51.922;7.730;2022-09-09T07:21:30;4.70;;;1.70;;
47529;SDS011;33272;51.922;7.730;2022-09-09T07:23:59;3.27;;;1.90;;
47529;SDS011;33272;51.922;7.730;2022-09-09T07:26:28;2.43;;;1.43;;
47529;SDS011;33272;51.922;7.730;2022-09-09T07:28:56;5.53;;;1.97;;
47529;SDS011;33272;51.922;7.730;2022-09-09T07:31:25;6.00;;;1.90;;
47529;SDS011;33272;51.922;7.730;2022-09-09T07:33:55;4.53;;;1.73;;
47529;SDS011;33272;51.922;7.730;2022-09-09T07:36:23;3.93;;;1.83;;
47529;SDS011;33272;51.922;7.730;2022-09-09T07:38:53;4.63;;;1.53;;
47529;SDS011;33272;51.922;7.730;2022-09-09T07:41:23;4.80;;;1.90;;
47529;SDS011;33272;51.922;7.730;2022-09-09T07:43:52;3.80;;;1.80;;
47529;SDS011;33272;51.922;7.730;2022-09-09T07:46:20;2.80;;;1.53;;
47529;SDS011;33272;51.922;7.730;2022-09-09T07:48:51;6.17;;;1.80;;
47529;SDS011;33272;51.922;7.730;2022-09-09T07:51:21;4.87;;;2.10;;
47529;SDS011;33272;51.922;7.730;2022-09-09T07:53:51;4.03;;;1.70;;
47529;SDS011;33272;51.922;7.730;2022-09-09T07:56:20;3.97;;;1.90;;
47529;SDS011;33272;51.922;7.730;2022-09-09T07:58:48;6.27;;;1.80;;
47529;SDS011;33272;51.922;7.730;2022-09-09T08:01:20;4.00;;;1.83;;
47529;SDS011;33272;51.922;7.730;2022-09-09T08:03:53;4.20;;;1.80;;
47529;SDS011;33272;51.922;7.730;2022-09-09T08:06:24;4.93;;;1.53;;
47529;SDS011;33272;51.922;7.730;2022-09-09T08:08:52;4.60;;;2.17;;
47529;SDS011;33272;51.922;7.730;2022-09-09T08:11:20;3.50;;;1.60;;
47529;SDS011;33272;51.922;7.730;2022-09-09T08:13:49;7.00;;;2.27;;
47529;SDS011;33272;51.922;7.730;2022-09-09T08:16:18;3.30;;;1.87;;
47529;SDS011;33272;51.922;7.730;2022-09-09T08:18:47;4.67;;;1.90;;
47529;SDS011;33272;51.922;7.730;2022-09-09T08:21:17;7.50;;;1.90;;
47529;SDS011;33272;51.922;7.730;2022-09-09T08:23:47;4.87;;;1.80;;
47529;SDS011;33272;51.922;7.730;2022-09-09T08:26:18;4.10;;;1.50;;
47529;SDS011;33272;51.922;7.730;2022-09-09T08:28:48;4.43;;;1.77;;
47529;SDS011;33272;51.922;7.730;2022-09-09T08:31:17;6.70;;;1.80;;
47529;SDS011;33272;51.922;7.730;2022-09-09T08:33:47;4.17;;;1.70;;
47529;SDS011;33272;51.922;7.730;2022-09-09T08:36:15;4.67;;;1.53;;
47529;SDS011;33272;51.922;7.730;2022-09-09T08:38:46;3.33;;;1.43;;
47529;SDS011;33272;51.922;7.730;2022-09-09T08:44:07;2.57;;;1.67;;
47529;SDS011;33272;51.922;7.730;2022-09-09T08:46:42;3.30;;;1.37;;
47529;SDS011;33272;51.922;7.730;2022-09-09T08:49:24;4.53;;;1.90;;
47529;SDS011;33272;51.922;7.730;2022-09-09T08:52:17;5.53;;;2.10;;
47529;SDS011;33272;51.922;7.730;2022-09-09T08:54:48;6.53;;;2.23;;
47529;SDS011;33272;51.922;7.730;2022-09-09T08:57:20;6.10;;;2.47;;
47529;SDS011;33272;51.922;7.730;2022-09-09T08:59:51;5.90;;;2.53;;
47529;SDS011;33272;51.922;7.730;2022-09-09T09:02:21;6.00;;;2.77;;
47529;SDS011;33272;51.922;7.730;2022-09-09T09:05:06;6.30;;;2.37;;
47529;SDS011;33272;51.922;7.730;2022-09-09T09:07:50;5.80;;;2.23;;
47529;SDS011;33272;51.922;7.730;2022-09-09T09:10:32;3.47;;;2.20;;
47529;SDS011;33272;51.922;7.730;2022-09-09T09:13:12;5.23;;;1.83;;
47529;SDS011;33272;51.922;7.730;2022-09-09T09:15:42;4.90;;;2.37;;
47529;SDS011;33272;51.922;7.730;2022-09-09T09:18:15;5.13;;;1.67;;
47529;SDS011;33272;51.922;7.730;2022-09-09T09:20:46;2.50;;;1.50;;
47529;SDS011;33272;51.922;7.730;2022-09-09T09:23:24;3.57;;;2.13;;
47529;SDS011;33272;51.922;7.730;2022-09-09T09:25:56;4.90;;;1.80;;
47529;SDS011;33272;51.922;7.730;2022-09-09T09:28:27;4.33;;;1.50;;
47529;SDS011;33272;51.922;7.730;2022-09-09T09:30:58;5.37;;;1.90;;
47529;SDS011;33272;51.922;7.730;2022-09-09T09:33:31;5.60;;;1.70;;
47529;SDS011;33272;51.922;7.730;2022-09-09T09:36:05;3.97;;;1.73;;
47529;SDS011;33272;51.922;7.730;2022-09-09T09:38:35;6.50;;;1.87;;
47529;SDS011;33272;51.922;7.730;2022-09-09T09:41:03;4.40;;;1.90;;
47529;SDS011;33272;51.922;7.730;2022-09-09T09:43:30;3.47;;;1.43;;
47529;SDS011;33272;51.922;7.730;2022-09-09T09:45:59;5.80;;;2.10;;
47529;SDS011;33272;51.922;7.730;2022-09-09T09:48:29;6.77;;;1.80;;
47529;SDS011;33272;51.922;7.730;2022-09-09T09:50:57;4.00;;;1.60;;
47529;SDS011;33272;51.922;7.730;2022-09-09T09:53:28;6.40;;;1.67;;
47529;SDS011;33272;51.922;7.730;2022-09-09T09:55:59;3.83;;;1.60;;
47529;SDS011;33272;51.922;7.730;2022-09-09T09:58:30;3.10;;;2.20;;
47529;SDS011;33272;51.922;7.730;2022-09-09T10:00:59;3.73;;;1.73;;
47529;SDS011;33272;51.922;7.730;2022-09-09T10:03:27;4.10;;;1.80;;
47529;SDS011;33272;51.922;7.730;2022-09-09T10:05:56;3.77;;;1.73;;
47529;SDS011;33272;51.922;7.730;2022-09-09T10:08:26;3.40;;;2.40;;
47529;SDS011;33272;51.922;7.730;2022-09-09T10:13:53;4.03;;;1.90;;
47529;SDS011;33272;51.922;7.730;2022-09-09T10:16:40;3.47;;;1.80;;
47529;SDS011;33272;51.922;7.730;2022-09-09T10:19:29;5.67;;;2.30;;
47529;SDS011;33272;51.922;7.730;2022-09-09T10:22:02;3.63;;;2.00;;
47529;SDS011;33272;51.922;7.730;2022-09-09T10:24:54;6.27;;;1.80;;
47529;SDS011;33272;51.922;7.730;2022-09-09T10:27:43;4.50;;;1.97;;
47529;SDS011;33272;51.922;7.730;2022-09-09T10:30:26;2.50;;;1.83;;
47529;SDS011;33272;51.922;7.730;2022-09-09T10:33:04;5.23;;;2.30;;
47529;SDS011;33272;51.922;7.730;2022-09-09T10:35:38;4.67;;;2.67;;
47529;SDS011;33272;51.922;7.730;2022-09-09T10:38:17;5.03;;;2.30;;
47529;SDS011;33272;51.922;7.730;2022-09-09T10:41:03;6.27;;;2.57;;
47529;SDS011;33272;51.922;7.730;2022-09-09T10:46:53;5.27;;;2.77;;
47529;SDS011;33272;51.922;7.730;2022-09-09T10:50:00;2.67;;;2.10;;
47529;SDS011;33272;51.922;7.730;2022-09-09T10:52:45;3.90;;;2.00;;
47529;SDS011;33272;51.922;7.730;2022-09-09T10:55:23;3.80;;;2.17;;
47529;SDS011;33272;51.922;7.730;2022-09-09T10:57:57;4.83;;;1.70;;
47529;SDS011;33272;51.922;7.730;2022-09-09T11:00:30;5.57;;;2.00;;
47529;SDS011;33272;51.922;7.730;2022-09-09T11:03:10;4.87;;;2.00;;
47529;SDS011;33272;51.922;7.730;2022-09-09T11:05:45;3.23;;;2.00;;
47529;SDS011;33272;51.922;7.730;2022-09-09T11:08:18;2.77;;;2.00;;
47529;SDS011;33272;51.922;7.730;2022-09-09T11:10:48;3.70;;;2.77;;
47529;SDS011;33272;51.922;7.730;2022-09-09T11:13:23;3.53;;;2.70;;
47529;SDS011;33272;51.922;7.730;2022-09-09T11:16:00;3.53;;;2.80;;
47529;SDS011;33272;51.922;7.730;2022-09-09T11:18:31;4.60;;;2.60;;
47529;SDS011;33272;51.922;7.730;2022-09-09T11:21:08;5.17;;;3.67;;
47529;SDS011;33272;51.922;7.730;2022-09-09T11:23:49;3.03;;;2.30;;
47529;SDS011;33272;51.922;7.730;2022-09-09T11:26:24;3.37;;;2.70;;
47529;SDS011;33272;51.922;7.730;2022-09-09T11:29:04;2.50;;;2.30;;
47529;SDS011;33272;51.922;7.730;2022-09-09T11:32:00;4.57;;;2.27;;
47529;SDS011;33272;51.922;7.730;2022-09-09T11:34:45;3.03;;;1.60;;
47529;SDS011;33272;51.922;7.730;2022-09-09T11:37:45;4.03;;;1.73;;
47529;SDS011;33272;51.922;7.730;2022-09-09T11:40:38;2.77;;;1.27;;
47529;SDS011;33272;51.922;7.730;2022-09-09T11:43:09;3.43;;;1.43;;
47529;SDS011;33272;51.922;7.730;2022-09-09T11:45:41;4.20;;;1.80;;
47529;SDS011;33272;51.922;7.730;2022-09-09T11:48:31;4.53;;;2.13;;
47529;SDS011;33272;51.922;7.730;2022-09-09T11:51:03;3.73;;;1.80;;
47529;SDS011;33272;51.922;7.730;2022-09-09T11:53:33;4.37;;;1.80;;
47529;SDS011;33272;51.922;7.730;2022-09-09T11:58:57;3.73;;;2.13;;
47529;SDS011;33272;51.922;7.730;2022-09-09T12:01:29;3.30;;;2.30;;
47529;SDS011;33272;51.922;7.730;2022-09-09T12:04:09;3.23;;;2.37;;
47529;SDS011;33272;51.922;7.730;2022-09-09T12:06:54;2.60;;;1.70;;
47529;SDS011;33272;51.922;7.730;2022-09-09T12:09:27;3.63;;;1.63;;
47529;SDS011;33272;51.922;7.730;2022-09-09T12:12:20;4.07;;;1.73;;
47529;SDS011;33272;51.922;7.730;2022-09-09T12:17:54;4.17;;;1.70;;
47529;SDS011;33272;51.922;7.730;2022-09-09T12:20:26;2.37;;;1.40;;
47529;SDS011;33272;51.922;7.730;2022-09-09T12:25:58;2.30;;;1.10;;
47529;SDS011;33272;51.922;7.730;2022-09-09T12:28:40;2.33;;;1.40;;
47529;SDS011;33272;51.922;7.730;2022-09-09T12:31:22;1.57;;;1.00;;
47529;SDS011;33272;51.922;7.730;2022-09-09T12:34:02;1.60;;;1.37;;
47529;SDS011;33272;51.922;7.730;2022-09-09T12:36:38;3.27;;;1.23;;
47529;SDS011;33272;51.922;7.730;2022-09-09T12:39:10;3.23;;;1.30;;
47529;SDS011;33272;51.922;7.730;2022-09-09T12:41:51;3.13;;;1.20;;
47529;SDS011;33272;51.922;7.730;2022-09-09T12:44:22;2.07;;;1.17;;
47529;SDS011;33272;51.922;7.730;2022-09-09T12:46:50;1.87;;;1.10;;
47529;SDS011;33272;51.922;7.730;2022-09-09T12:49:29;5.47;;;1.50;;
47529;SDS011;33272;51.922;7.730;2022-09-09T12:52:02;2.43;;;1.50;;
47529;SDS011;33272;51.922;7.730;2022-09-09T12:54:35;1.60;;;1.30;;
47529;SDS011;33272;51.922;7.730;2022-09-09T12:57:03;4.00;;;1.33;;
47529;SDS011;33272;51.922;7.730;2022-09-09T12:59:35;2.27;;;1.40;;
47529;SDS011;33272;51.922;7.730;2022-09-09T13:02:22;4.30;;;1.40;;
47529;SDS011;33272;51.922;7.730;2022-09-09T13:04:51;2.60;;;1.10;;
47529;SDS011;33272;51.922;7.730;2022-09-09T13:07:21;4.00;;;1.53;;
47529;SDS011;33272;51.922;7.730;2022-09-09T13:09:49;2.90;;;1.40;;
47529;SDS011;33272;51.922;7.730;2022-09-09T13:12:17;2.03;;;1.10;;
47529;SDS011;33272;51.922;7.730;2022-09-09T13:14:48;2.47;;;1.40;;
47529;SDS011;33272;51.922;7.730;2022-09-09T13:17:20;3.30;;;1.60;;
47529;SDS011;33272;51.922;7.730;2022-09-09T13:19:49;2.60;;;1.57;;
47529;SDS011;33272;51.922;7.730;2022-09-09T13:22:21;1.90;;;1.30;;
47529;SDS011;33272;51.922;7.730;2022-09-09T13:25:03;3.27;;;1.37;;
47529;SDS011;33272;51.922;7.730;2022-09-09T13:27:50;2.07;;;1.33;;
47529;SDS011;33272;51.922;7.730;2022-09-09T13:30:21;4.67;;;1.87;;
47529;SDS011;33272;51.922;7.730;2022-09-09T13:33:01;5.47;;;1.53;;
47529;SDS011;33272;51.922;7.730;2022-09-09T13:35:45;3.00;;;1.33;;
47529;SDS011;33272;51.922;7.730;2022-09-09T13:38:17;1.80;;;1.30;;
47529;SDS011;33272;51.922;7.730;2022-09-09T13:40:54;1.90;;;1.20;;
47529;SDS011;33272;51.922;7.730;2022-09-09T13:43:26;1.67;;;0.97;;
47529;SDS011;33272;51.922;7.730;2022-09-09T13:45:55;2.40;;;1.40;;
47529;SDS011;33272;51.922;7.730;2022-09-09T13:48:24;2.17;;;1.30;;
47529;SDS011;33272;51.922;7.730;2022-09-09T13:50:56;1.73;;;1.10;;
47529;SDS011;33272;51.922;7.730;2022-09-09T13:53:26;3.27;;;1.20;;
47529;SDS011;33272;51.922;7.730;2022-09-09T13:55:55;2.43;;;1.23;;
47529;SDS011;33272;51.922;7.730;2022-09-09T13:58:23;2.87;;;1.43;;
47529;SDS011;33272;51.922;7.730;2022-09-09T14:00:51;2.97;;;1.30;;
47529;SDS011;33272;51.922;7.730;2022-09-09T14:03:19;3.53;;;0.93;;
47529;SDS011;33272;51.922;7.730;2022-09-09T14:05:46;2.97;;;1.07;;
47529;SDS011;33272;51.922;7.730;2022-09-09T14:08:16;1.20;;;0.90;;
47529;SDS011;33272;51.922;7.730;2022-09-09T14:13:25;3.43;;;1.10;;
47529;SDS011;33272;51.922;7.730;2022-09-09T14:15:52;1.57;;;0.90;;
47529;SDS011;33272;51.922;7.730;2022-09-09T14:18:21;2.60;;;1.03;;
47529;SDS011;33272;51.922;7.730;2022-09-09T14:20:50;3.03;;;1.10;;
47529;SDS011;33272;51.922;7.730;2022-09-09T14:23:17;1.67;;;0.87;;
47529;SDS011;33272;51.922;7.730;2022-09-09T14:25:44;1.67;;;1.00;;
47529;SDS011;33272;51.922;7.730;2022-09-09T14:28:13;1.93;;;1.00;;
47529;SDS011;33272;51.922;7.730;2022-09-09T14:30:41;1.47;;;0.97;;
47529;SDS011;33272;51.922;7.730;2022-09-09T14:33:11;2.33;;;1.00;;
47529;SDS011;33272;51.922;7.730;2022-09-09T14:35:39;2.43;;;1.40;;
47529;SDS011;33272;51.922;7.730;2022-09-09T14:38:08;2.17;;;1.00;;
47529;SDS011;33272;51.922;7.730;2022-09-09T14:40:35;1.83;;;0.90;;
47529;SDS011;33272;51.922;7.730;2022-09-09T14:43:04;2.30;;;0.70;;
47529;SDS011;33272;51.922;7.730;2022-09-09T14:45:40;1.13;;;0.60;;
47529;SDS011;33272;51.922;7.730;2022-09-09T14:48:08;0.80;;;0.60;;
47529;SDS011;33272;51.922;7.730;2022-09-09T14:50:35;1.60;;;0.80;;
47529;SDS011;33272;51.922;7.730;2022-09-09T14:53:05;2.20;;;0.90;;
47529;SDS011;33272;51.922;7.730;2022-09-09T14:55:32;1.87;;;0.90;;
47529;SDS011;33272;51.922;7.730;2022-09-09T14:57:59;3.37;;;1.17;;
47529;SDS011;33272;51.922;7.730;2022-09-09T15:00:26;3.90;;;1.30;;
47529;SDS011;33272;51.922;7.730;2022-09-09T15:02:54;2.30;;;1.10;;
47529;SDS011;33272;51.922;7.730;2022-09-09T15:05:22;2.00;;;1.30;;
47529;SDS011;33272;51.922;7.730;2022-09-09T15:07:49;5.20;;;1.40;;
47529;SDS011;33272;51.922;7.730;2022-09-09T15:10:16;2.23;;;1.30;;
47529;SDS011;33272;51.922;7.730;2022-09-09T15:12:44;1.27;;;1.10;;
47529;SDS011;33272;51.922;7.730;2022-09-09T15:15:11;3.50;;;1.07;;
47529;SDS011;33272;51.922;7.730;2022-09-09T15:17:38;1.63;;;1.33;;
47529;SDS011;33272;51.922;7.730;2022-09-09T15:20:07;3.07;;;1.40;;
47529;SDS011;33272;51.922;7.730;2022-09-09T15:22:35;3.00;;;1.33;;
47529;SDS011;33272;51.922;7.730;2022-09-09T15:25:03;4.43;;;1.30;;
47529;SDS011;33272;51.922;7.730;2022-09-09T15:27:33;2.50;;;1.53;;
47529;SDS011;33272;51.922;7.730;2022-09-09T15:30:06;2.03;;;1.10;;
47529;SDS011;33272;51.922;7.730;2022-09-09T15:32:35;1.20;;;1.00;;
47529;SDS011;33272;51.922;7.730;2022-09-09T15:35:03;1.83;;;1.23;;
47529;SDS011;33272;51.922;7.730;2022-09-09T15:37:32;1.27;;;1.17;;